createdAt,value
2022-12-25T00:01:14.774Z,98339.1
2022-12-25T00:06:50.530Z,98335.6
2022-12-25T00:12:26.719Z,98315.7
2022-12-25T00:18:04.556Z,98300
2022-12-25T00:23:39.671Z,98294.9
2022-12-25T00:29:18.936Z,98282.1
2022-12-25T00:35:03.243Z,98282.9
2022-12-25T00:40:38.281Z,98282.6
2022-12-25T00:46:35.490Z,98297.4
2022-12-25T00:52:10.018Z,98288.8
2022-12-25T00:57:44.967Z,98302.8
2022-12-25T01:03:20.336Z,98298.5
2022-12-25T01:08:56.414Z,98323.5
2022-12-25T01:14:32.795Z,98348.8
2022-12-25T01:20:27.662Z,98355.2
2022-12-25T01:26:03.321Z,98370.4
2022-12-25T01:31:38.572Z,98359.5
2022-12-25T01:37:13.869Z,98359.8
2022-12-25T01:43:19.327Z,98363.9
2022-12-25T01:49:19.279Z,98383
2022-12-25T01:54:52.940Z,98386.4
2022-12-25T02:00:30.072Z,98385.1
2022-12-25T02:06:06.633Z,98378.7
2022-12-25T02:11:41.790Z,98385.6
2022-12-25T02:17:19.003Z,98380.9
2022-12-25T02:23:11.067Z,98381.5
2022-12-25T02:28:46.933Z,98384.4
2022-12-25T02:34:35.742Z,98379.1
2022-12-25T02:40:10.883Z,98386.7
2022-12-25T02:45:46.709Z,98379.6
2022-12-25T02:51:22.594Z,98363.2
2022-12-25T02:57:01.601Z,98363
2022-12-25T03:02:37.073Z,98350.9
2022-12-25T03:08:23.298Z,98348
2022-12-25T03:14:01.722Z,98356.8
2022-12-25T03:19:36.877Z,98347
2022-12-25T03:25:13.477Z,98339.6
2022-12-25T03:30:49.543Z,98344.3
2022-12-25T03:36:25.350Z,98349.9
2022-12-25T03:42:01.553Z,98346.9
2022-12-25T03:47:58.271Z,98347.4
2022-12-25T03:53:31.575Z,98333.2
2022-12-25T03:59:24.308Z,98333.8
2022-12-25T04:05:12.228Z,98343.6
2022-12-25T04:10:47.709Z,98348.6
2022-12-25T04:16:24.519Z,98349.3
2022-12-25T04:22:01.699Z,98344.6
2022-12-25T04:27:36.921Z,98351
2022-12-25T04:33:12.060Z,98374.2
2022-12-25T04:38:47.202Z,98371.7
2022-12-25T04:44:23.235Z,98365.5
2022-12-25T04:50:02.952Z,98367.8
2022-12-25T04:55:37.883Z,98371.6
2022-12-25T05:01:13.775Z,98366.8
2022-12-25T05:06:58.986Z,98376.6
2022-12-25T05:12:34.042Z,98366.7
2022-12-25T05:18:09.186Z,98373.6
2022-12-25T05:23:49.386Z,98369.2
2022-12-25T05:29:24.238Z,98366.2
2022-12-25T05:34:59.770Z,98364.9
2022-12-25T05:40:35.390Z,98363.9
2022-12-25T05:46:40.547Z,98353.1
2022-12-25T05:52:15.592Z,98353
2022-12-25T05:57:50.766Z,98352.8
2022-12-25T06:03:28.771Z,98340
2022-12-25T06:09:05.578Z,98314.6
2022-12-25T06:14:41.159Z,98314.8
2022-12-25T06:20:27.147Z,98322.1
2022-12-25T06:26:03.211Z,98315.2
2022-12-25T06:31:47.888Z,98312.8
2022-12-25T06:37:26.543Z,98317.6
2022-12-25T06:43:05.500Z,98315.1
2022-12-25T06:49:05.175Z,98314.9
2022-12-25T06:54:38.232Z,98327.5
2022-12-25T07:00:13.625Z,98334.6
2022-12-25T07:05:58.333Z,98328.6
2022-12-25T07:11:45.590Z,98334.5
2022-12-25T07:17:21.334Z,98347.5
2022-12-25T07:22:57.990Z,98343.8
2022-12-25T07:28:33.563Z,98350.9
2022-12-25T07:34:08.706Z,98348
2022-12-25T07:39:48.473Z,98354.7
2022-12-25T07:45:24.701Z,98352
2022-12-25T07:51:00.171Z,98342.8
2022-12-25T07:56:39.565Z,98333.4
2022-12-25T08:02:19.837Z,98343.4
2022-12-25T08:08:03.552Z,98363.3
2022-12-25T08:13:38.986Z,98358
2022-12-25T08:19:23.829Z,98372.9
2022-12-25T08:25:00.517Z,98388.4
2022-12-25T08:30:36.798Z,98379.4
2022-12-25T08:36:12.766Z,98397.4
2022-12-25T08:41:48.102Z,98396.7
2022-12-25T08:47:24.072Z,98406.3
2022-12-25T08:53:02.674Z,98423.2
2022-12-25T08:58:45.541Z,98414.2
2022-12-25T09:04:31.551Z,98404.2
2022-12-25T09:10:13.121Z,98431.2
2022-12-25T09:15:58.799Z,98433.7
2022-12-25T09:21:57.061Z,98451
2022-12-25T09:27:56.964Z,98437.9
2022-12-25T09:33:52.498Z,98467
2022-12-25T09:39:30.703Z,98469.2
2022-12-25T09:45:21.139Z,98482.1
2022-12-25T09:50:58.705Z,98487.1
2022-12-25T09:56:34.802Z,98495.2
2022-12-25T10:02:13.410Z,98499.5
2022-12-25T10:07:50.370Z,98505.1
2022-12-25T10:13:26.022Z,98503.1
2022-12-25T10:19:01.571Z,98506.5
2022-12-25T10:24:37.229Z,98503.9
2022-12-25T10:30:12.403Z,98509.5
2022-12-25T10:35:47.737Z,98500.8
2022-12-25T10:41:24.178Z,98503
2022-12-25T10:47:03.276Z,98515
2022-12-25T10:52:40.522Z,98512.1
2022-12-25T10:58:16.463Z,98502.5
2022-12-25T11:03:52.132Z,98503.4
2022-12-25T11:09:29.478Z,98505.2
2022-12-25T11:15:08.121Z,98501
2022-12-25T11:20:47.920Z,98514.3
2022-12-25T11:26:23.768Z,98511.3
2022-12-25T11:31:59.252Z,98507.1
2022-12-25T11:37:36.290Z,98513.6
2022-12-25T11:43:15.696Z,98509.6
2022-12-25T11:49:19.328Z,98507.9
2022-12-25T11:55:01.314Z,98492.4
2022-12-25T12:00:52.628Z,98498.4
2022-12-25T12:06:30.378Z,98486.9
2022-12-25T12:12:05.882Z,98481.4
2022-12-25T12:18:23.946Z,98493
2022-12-25T12:24:25.213Z,98491.9
2022-12-25T12:30:29.687Z,98492
2022-12-25T12:36:05.524Z,98489.2
2022-12-25T12:42:12.569Z,98489.2
2022-12-25T12:48:09.724Z,98479.2
2022-12-25T12:53:42.792Z,98481
2022-12-25T12:59:32.147Z,98477.7
2022-12-25T13:05:13.059Z,98471.8
2022-12-25T13:10:52.077Z,98472.8
2022-12-25T13:16:33.597Z,98482.4
2022-12-25T13:22:20.938Z,98484.4
2022-12-25T13:27:59.269Z,98479.7
2022-12-25T13:33:34.783Z,98476
2022-12-25T13:39:14.855Z,98475.5
2022-12-25T13:44:51.929Z,98474.6
2022-12-25T13:51:11.993Z,98482.4
2022-12-25T13:56:54.729Z,98486
2022-12-25T14:02:31.492Z,98481.7
2022-12-25T14:08:08.169Z,98480
2022-12-25T14:13:49.920Z,98482.2
2022-12-25T14:19:33.586Z,98486.2
2022-12-25T14:25:09.961Z,98502.8
2022-12-25T14:30:45.400Z,98537.2
2022-12-25T14:36:24.987Z,98507
2022-12-25T14:42:11.797Z,98503.8
2022-12-25T14:48:29.820Z,98510.5
2022-12-25T14:54:03.882Z,98509.4
2022-12-25T14:59:38.766Z,98506
2022-12-25T15:05:14.163Z,98511.4
2022-12-25T15:11:04.863Z,98512.6
2022-12-25T15:16:41.243Z,98511.8
2022-12-25T15:22:17.440Z,98511.9
2022-12-25T15:27:59.539Z,98521.2
2022-12-25T15:34:39.324Z,98521.4
2022-12-25T15:40:29.326Z,98525.4
2022-12-25T15:46:32.734Z,98524.2
2022-12-25T15:52:07.794Z,98529.7
2022-12-25T15:57:50.231Z,98541
2022-12-25T16:03:38.800Z,98536.5
2022-12-25T16:09:16.210Z,98551.1
2022-12-25T16:15:01.128Z,98564.3
2022-12-25T16:20:43.050Z,98562.1
2022-12-25T16:26:37.196Z,98565.6
2022-12-25T16:32:13.856Z,98568.5
2022-12-25T16:37:52.365Z,98575.8
2022-12-25T16:43:28.264Z,98582.8
2022-12-25T16:49:03.467Z,98586.1
2022-12-25T16:54:39.206Z,98603.3
2022-12-25T17:00:19.295Z,98600.1
2022-12-25T17:06:11.385Z,98601.9
2022-12-25T17:11:55.224Z,98604.3
2022-12-25T17:17:30.218Z,98610.3
2022-12-25T17:23:06.020Z,98602.5
2022-12-25T17:28:44.571Z,98604.4
2022-12-25T17:34:40.665Z,98609.6
2022-12-25T17:40:15.515Z,98612
2022-12-25T17:45:50.368Z,98627
2022-12-25T17:51:44.424Z,98645.4
2022-12-25T17:57:19.721Z,98650.4
2022-12-25T18:02:55.964Z,98650.5
2022-12-25T18:08:40.452Z,98662.9
2022-12-25T18:14:15.837Z,98681.5
2022-12-25T18:19:51.032Z,98675.6
2022-12-25T18:25:26.455Z,98678.1
2022-12-25T18:31:02.401Z,98667.8
2022-12-25T18:36:38.175Z,98678.5
2022-12-25T18:42:13.570Z,98690.1
2022-12-25T18:47:48.786Z,98695.2
2022-12-25T18:53:24.195Z,98676.1
2022-12-25T18:58:59.991Z,98670.7
2022-12-25T19:04:36.702Z,98681.4
2022-12-25T19:10:11.755Z,98698.7
2022-12-25T19:15:48.540Z,98694.8
2022-12-25T19:21:24.093Z,98684
2022-12-25T19:26:59.034Z,98684.6
2022-12-25T19:32:34.015Z,98685.9
2022-12-25T19:38:09.036Z,98685
2022-12-25T19:43:44.347Z,98671.6
2022-12-25T19:49:52.657Z,98682.3
2022-12-25T19:55:36.408Z,98679.9
2022-12-25T20:01:17.677Z,98685.2
2022-12-25T20:06:58.742Z,98679.1
2022-12-25T20:12:40.367Z,98677.1
2022-12-25T20:18:20.352Z,98682
2022-12-25T20:23:56.145Z,98684.3
2022-12-25T20:29:34.261Z,98681.1
2022-12-25T20:35:14.810Z,98681.9
2022-12-25T20:41:30.669Z,98687.5
2022-12-25T20:47:32.233Z,98677.1
2022-12-25T20:53:07.670Z,98680
2022-12-25T20:58:44.779Z,98687.9
2022-12-25T21:04:22.989Z,98695.6
2022-12-25T21:10:03.093Z,98723
2022-12-25T21:15:43.681Z,98735.6
2022-12-25T21:21:19.266Z,98727.7
2022-12-25T21:26:58.034Z,98727.9
2022-12-25T21:32:34.903Z,98735.4
2022-12-25T21:38:17.561Z,98742.7
2022-12-25T21:43:52.558Z,98751.5
2022-12-25T21:49:49.578Z,98756.7
2022-12-25T21:55:24.144Z,98760.7
2022-12-25T22:01:00.488Z,98763.8
2022-12-25T22:06:37.377Z,98768.5
2022-12-25T22:12:12.638Z,98775.8
2022-12-25T22:17:47.692Z,98787.3
2022-12-25T22:23:25.989Z,98789.5
2022-12-25T22:29:01.618Z,98789.2
2022-12-25T22:34:36.998Z,98788.5
2022-12-25T22:40:12.142Z,98796.4
2022-12-25T22:45:48.727Z,98798.3
2022-12-25T22:51:24.379Z,98808.1
2022-12-25T22:56:59.795Z,98814.7
2022-12-25T23:02:38.253Z,98832.2
2022-12-25T23:08:15.075Z,98836.1
2022-12-25T23:13:50.498Z,98828.9
2022-12-25T23:19:25.513Z,98842.4
2022-12-25T23:25:00.373Z,98847.1
2022-12-25T23:30:36.103Z,98856.6
2022-12-25T23:36:11.121Z,98848.6
2022-12-25T23:41:47.076Z,98863.1
2022-12-25T23:47:44.550Z,98866.4
2022-12-25T23:53:17.496Z,98866.8
2022-12-25T23:58:53.844Z,98863.6
